Time;durP1;ratioP1;P1;durP2;ratioP2;P2;SDS_P1;SDS_P2;PMS_P1;PMS_P2;Temp;Humidity;BMP_temperature;BMP_pressure;BME280_temperature;BME280_humidity;BME280_pressure;Samples;Min_cycle;Max_cycle;Signal;HPM_P1;HPM_P2
2023/05/04 00:00:09;;;;;;;8.32;6.10;;;;;;;8.42;53.72;101756.94;683031;29;1085;-81
2023/05/04 00:00:30;;;;;;;10.40;6.70;;;;;;;8.33;53.66;101743.44;685389;28;1356;-81
2023/05/04 00:00:50;;;;;;;11.53;6.70;;;;;;;8.40;53.81;101755.09;682954;28;1166;-81
2023/05/04 00:01:11;;;;;;;10.90;6.43;;;;;;;8.37;53.46;101750.63;680354;29;1303;-81
2023/05/04 00:01:31;;;;;;;8.68;6.13;;;;;;;8.43;53.63;101757.84;682851;28;1008;-81
2023/05/04 00:01:52;;;;;;;8.03;6.23;;;;;;;8.40;54.01;101750.78;682888;28;1199;-82
2023/05/04 00:02:13;;;;;;;8.60;6.60;;;;;;;8.36;53.76;101746.25;683188;29;1088;-82
2023/05/04 00:02:33;;;;;;;9.10;6.65;;;;;;;8.39;53.76;101756.78;680177;29;1229;-82
2023/05/04 00:02:54;;;;;;;9.20;6.37;;;;;;;8.40;53.70;101758.56;680351;29;1114;-81
2023/05/04 00:03:14;;;;;;;9.88;6.40;;;;;;;8.39;54.01;101751.59;685668;28;1186;-82
2023/05/04 00:03:36;;;;;;;9.27;6.40;;;;;;;8.36;54.06;101752.31;682720;28;1259;-81
2023/05/04 00:03:57;;;;;;;9.77;6.60;;;;;;;8.41;53.74;101756.88;682885;29;985;-81
2023/05/04 00:04:18;;;;;;;8.10;6.20;;;;;;;8.33;54.08;101744.38;683100;28;1112;-81
2023/05/04 00:04:41;;;;;;;8.05;6.10;;;;;;;8.34;53.86;101745.25;682954;28;1947;-81
2023/05/04 00:05:04;;;;;;;7.70;6.30;;;;;;;8.33;53.96;101746.06;685551;28;1322;-82
2023/05/04 00:05:25;;;;;;;7.68;6.30;;;;;;;8.38;53.91;101759.31;685587;28;1032;-82
2023/05/04 00:05:46;;;;;;;8.73;6.13;;;;;;;8.31;53.90;101746.00;685773;28;1075;-81
2023/05/04 00:06:07;;;;;;;8.00;5.78;;;;;;;8.33;53.75;101746.06;680192;29;1150;-81
2023/05/04 00:06:28;;;;;;;7.75;5.70;;;;;;;8.27;54.29;101740.53;680060;29;1055;-81
2023/05/04 00:06:48;;;;;;;7.40;5.90;;;;;;;8.29;54.35;101741.53;677710;29;910;-81
2023/05/04 00:07:09;;;;;;;8.73;6.30;;;;;;;8.25;53.86;101742.16;677719;29;974;-81
2023/05/04 00:07:29;;;;;;;9.02;6.60;;;;;;;8.31;54.17;101747.69;682794;28;1207;-82
2023/05/04 00:07:50;;;;;;;8.30;6.40;;;;;;;8.27;54.35;101735.31;680425;29;968;-81
2023/05/04 00:08:10;;;;;;;7.30;6.00;;;;;;;8.32;54.48;101752.97;683010;28;1127;-81
2023/05/04 00:08:31;;;;;;;7.22;5.90;;;;;;;8.20;54.31;101737.63;677575;29;1200;-82
2023/05/04 00:08:51;;;;;;;7.33;5.90;;;;;;;8.29;54.56;101757.13;685560;28;1283;-82
2023/05/04 00:09:14;;;;;;;8.23;6.00;;;;;;;8.21;54.40;101736.81;685706;28;1036;-81
2023/05/04 00:09:34;;;;;;;8.20;5.95;;;;;;;8.25;54.35;101752.56;685443;28;1368;-81
2023/05/04 00:09:55;;;;;;;8.55;6.10;;;;;;;8.27;54.56;101751.84;677640;29;1337;-81
2023/05/04 00:10:16;;;;;;;8.60;6.30;;;;;;;8.20;54.69;101735.03;683014;28;1075;-82
2023/05/04 00:10:36;;;;;;;8.60;6.40;;;;;;;8.22;54.17;101741.19;680022;29;1207;-82
2023/05/04 00:10:57;;;;;;;7.57;6.30;;;;;;;8.28;54.23;101751.00;682965;28;1150;-81
2023/05/04 00:11:17;;;;;;;7.73;6.30;;;;;;;8.23;54.31;101729.97;680303;29;1129;-81
2023/05/04 00:11:38;;;;;;;7.90;6.22;;;;;;;8.23;54.35;101732.56;682792;28;1159;-81
2023/05/04 00:11:59;;;;;;;7.70;5.95;;;;;;;8.25;54.30;101745.66;682992;28;1308;-81
2023/05/04 00:12:19;;;;;;;8.32;5.80;;;;;;;8.25;54.51;101734.34;682681;28;1320;-81
2023/05/04 00:12:41;;;;;;;10.70;6.07;;;;;;;8.26;54.05;101743.94;680265;29;1157;-81
2023/05/04 00:13:01;;;;;;;11.70;6.20;;;;;;;8.15;54.33;101728.66;677702;29;997;-82
2023/05/04 00:13:22;;;;;;;11.53;6.30;;;;;;;8.23;54.52;101735.16;685554;28;1189;-82
2023/05/04 00:13:43;;;;;;;8.93;6.10;;;;;;;8.22;54.30;101743.78;685524;28;1965;-82
2023/05/04 00:14:04;;;;;;;8.10;6.10;;;;;;;8.17;54.56;101740.03;682887;28;1224;-81
2023/05/04 00:14:25;;;;;;;7.80;6.20;;;;;;;8.18;54.27;101736.63;680310;29;1098;-81
2023/05/04 00:14:45;;;;;;;8.13;6.35;;;;;;;8.25;54.39;101749.97;680428;29;1223;-81
2023/05/04 00:15:06;;;;;;;9.00;6.70;;;;;;;8.18;54.34;101734.03;682833;29;1213;-81
2023/05/04 00:15:28;;;;;;;8.15;6.50;;;;;;;8.19;54.51;101741.03;680287;29;1085;-81
2023/05/04 00:15:48;;;;;;;9.38;6.70;;;;;;;8.22;54.83;101748.09;680274;28;1231;-81
2023/05/04 00:16:09;;;;;;;9.68;6.50;;;;;;;8.13;54.44;101732.91;680355;29;977;-81
2023/05/04 00:16:29;;;;;;;9.50;6.20;;;;;;;8.18;54.32;101743.53;680070;29;1106;-82
2023/05/04 00:16:50;;;;;;;8.38;5.97;;;;;;;8.13;54.33;101732.91;682702;28;1223;-82
2023/05/04 00:17:11;;;;;;;8.30;6.18;;;;;;;8.16;54.65;101733.06;683014;28;993;-82
2023/05/04 00:17:32;;;;;;;9.45;6.40;;;;;;;8.14;54.55;101739.88;680140;29;1230;-81
2023/05/04 00:18:10;;;;;;;10.30;6.70;;;;;;;8.06;54.49;101725.59;680477;29;745;-81
2023/05/04 00:18:41;;;;;;;10.35;6.85;;;;;;;8.13;54.83;101738.09;686886;28;1217;-82
2023/05/04 00:19:14;;;;;;;10.15;6.50;;;;;;;8.07;54.93;101735.16;685590;28;1211;-81
2023/05/04 00:19:35;;;;;;;10.00;6.50;;;;;;;8.06;54.87;101734.25;688115;28;1042;-81
2023/05/04 00:19:56;;;;;;;9.30;6.60;;;;;;;8.07;54.55;101732.56;685648;28;1151;-82
2023/05/04 00:20:17;;;;;;;10.67;6.53;;;;;;;8.02;54.78;101734.00;682885;28;1082;-81
2023/05/04 00:20:37;;;;;;;8.70;5.90;;;;;;;8.00;54.91;101727.84;682792;28;1426;-81
2023/05/04 00:20:58;;;;;;;8.65;5.90;;;;;;;8.06;54.94;101738.59;685538;28;1157;-81
2023/05/04 00:21:19;;;;;;;7.70;6.03;;;;;;;8.00;55.01;101727.84;680125;29;1264;-81
2023/05/04 00:21:40;;;;;;;8.18;6.15;;;;;;;8.03;54.70;101735.78;680255;29;1355;-81
2023/05/04 00:22:01;;;;;;;9.00;6.30;;;;;;;8.08;55.46;101739.56;680131;29;1372;-81
2023/05/04 00:22:21;;;;;;;10.68;6.40;;;;;;;8.06;55.02;101741.19;685432;28;1407;-82
2023/05/04 00:22:42;;;;;;;9.70;6.40;;;;;;;7.95;54.76;101728.50;680385;29;1167;-81
2023/05/04 00:23:02;;;;;;;7.90;5.97;;;;;;;7.96;54.73;101729.38;677429;28;1227;-81
2023/05/04 00:23:23;;;;;;;6.63;5.60;;;;;;;7.93;55.30;101727.50;677528;29;1404;-82
2023/05/04 00:23:43;;;;;;;8.45;5.93;;;;;;;7.93;55.19;101729.22;680345;29;1095;-81
2023/05/04 00:24:04;;;;;;;9.70;6.40;;;;;;;8.00;54.84;101738.25;680192;29;1400;-81
2023/05/04 00:24:25;;;;;;;9.00;6.63;;;;;;;7.99;55.12;101739.94;680030;29;1148;-81
2023/05/04 00:24:46;;;;;;;8.48;6.68;;;;;;;7.92;55.27;101728.31;680329;29;1096;-81
2023/05/04 00:25:31;;;;;;;7.55;6.38;;;;;;;8.01;54.99;101740.94;677559;29;1170;-82
2023/05/04 00:25:51;;;;;;;6.97;6.10;;;;;;;7.87;55.37;101721.97;682944;28;1089;-81
2023/05/04 00:26:12;;;;;;;8.10;6.15;;;;;;;7.87;55.27;101719.38;683104;29;1080;-82
2023/05/04 00:26:33;;;;;;;7.72;6.05;;;;;;;7.89;55.06;101722.97;680176;29;1064;-81
2023/05/04 00:26:54;;;;;;;8.23;5.95;;;;;;;7.98;55.58;101737.28;680078;29;1109;-81
2023/05/04 00:27:15;;;;;;;7.80;5.90;;;;;;;7.88;55.06;101721.19;680334;29;1299;-82
2023/05/04 00:27:35;;;;;;;8.60;6.17;;;;;;;7.85;54.93;101718.41;682802;28;1068;-81
2023/05/04 00:27:56;;;;;;;10.07;6.33;;;;;;;7.91;55.26;101726.53;680367;29;1085;-80
2023/05/04 00:28:16;;;;;;;11.45;6.78;;;;;;;7.83;55.24;101714.84;682913;29;1002;-82
2023/05/04 00:28:37;;;;;;;10.80;6.67;;;;;;;7.89;55.02;101725.56;680174;28;1146;-81
2023/05/04 00:28:57;;;;;;;10.25;6.65;;;;;;;7.85;55.26;101715.78;682961;29;1057;-81
2023/05/04 00:29:18;;;;;;;9.63;6.60;;;;;;;7.89;55.57;101724.66;682789;28;1044;-81
2023/05/04 00:29:39;;;;;;;8.90;6.70;;;;;;;7.86;55.60;101717.59;685456;28;1091;-81
2023/05/04 00:30:00;;;;;;;9.20;6.70;;;;;;;7.90;55.10;101719.56;680159;28;1333;-81
2023/05/04 00:30:20;;;;;;;8.98;6.68;;;;;;;7.84;55.56;101719.22;677391;28;1650;-80
2023/05/04 00:30:41;;;;;;;9.52;6.65;;;;;;;7.85;55.45;101720.13;680269;29;1165;-81
2023/05/04 00:31:02;;;;;;;11.13;6.50;;;;;;;7.87;55.19;101710.69;682920;29;1262;-81
2023/05/04 00:31:23;;;;;;;10.68;6.32;;;;;;;7.82;55.35;101715.66;682783;28;977;-81
2023/05/04 00:31:43;;;;;;;10.53;6.43;;;;;;;7.85;55.64;101720.13;685514;28;1133;-81
2023/05/04 00:32:04;;;;;;;9.32;6.35;;;;;;;7.83;55.28;101717.44;680160;28;1143;-80
2023/05/04 00:32:26;;;;;;;10.43;6.22;;;;;;;7.81;55.23;101709.53;680198;29;1067;-81
2023/05/04 00:32:46;;;;;;;10.52;6.22;;;;;;;7.83;55.36;101712.22;682928;28;1358;-81
2023/05/04 00:33:07;;;;;;;8.90;6.40;;;;;;;7.85;55.30;101714.91;680268;28;1377;-81
2023/05/04 00:33:28;;;;;;;8.02;6.25;;;;;;;7.86;55.19;101714.97;680047;29;1203;-81
2023/05/04 00:33:48;;;;;;;8.18;6.28;;;;;;;7.82;55.44;101721.72;682934;29;1214;-81
2023/05/04 00:34:09;;;;;;;9.03;6.60;;;;;;;7.84;55.32;101718.34;690949;28;1089;-80
2023/05/04 00:34:30;;;;;;;9.65;7.00;;;;;;;7.87;55.28;101721.97;685415;28;1326;-82
2023/05/04 00:34:51;;;;;;;9.85;7.05;;;;;;;7.80;55.77;101707.75;688216;28;1255;-82
2023/05/04 00:35:12;;;;;;;8.87;6.60;;;;;;;7.86;55.49;101721.91;680269;28;1125;-82
2023/05/04 00:35:32;;;;;;;8.50;6.40;;;;;;;7.89;55.73;101728.16;682778;29;1197;-81
2023/05/04 00:35:53;;;;;;;8.15;6.30;;;;;;;7.83;55.51;101717.44;677494;29;1146;-81
2023/05/04 00:36:14;;;;;;;8.27;6.50;;;;;;;7.84;55.84;101718.34;677653;29;1391;-82
2023/05/04 00:36:34;;;;;;;7.97;6.35;;;;;;;7.83;55.25;101712.22;677425;29;1260;-81
2023/05/04 00:36:55;;;;;;;9.32;6.30;;;;;;;7.87;55.72;101724.56;680098;29;1075;-82
2023/05/04 00:37:16;;;;;;;10.27;6.22;;;;;;;7.79;55.79;101705.06;680379;29;1211;-82
2023/05/04 00:37:36;;;;;;;10.95;6.38;;;;;;;7.85;55.62;101723.59;680090;29;1356;-82
2023/05/04 00:37:57;;;;;;;10.17;6.40;;;;;;;7.81;55.63;101713.88;680348;29;1007;-81
2023/05/04 00:38:18;;;;;;;9.68;6.30;;;;;;;7.84;55.85;101719.22;685557;28;1172;-81
2023/05/04 00:38:53;;;;;;;9.73;6.35;;;;;;;7.84;55.96;101719.22;682687;28;1321;-81
2023/05/04 00:39:14;;;;;;;9.05;6.15;;;;;;;7.80;55.43;101706.88;680294;29;1135;-81
2023/05/04 00:39:34;;;;;;;10.10;6.28;;;;;;;7.86;55.65;101716.72;682539;28;1346;-81
2023/05/04 00:39:55;;;;;;;9.47;6.40;;;;;;;7.79;55.57;101707.66;682849;29;1004;-82
2023/05/04 00:40:16;;;;;;;8.70;6.30;;;;;;;7.91;55.63;101730.81;679846;29;1166;-81
2023/05/04 00:40:36;;;;;;;8.00;6.30;;;;;;;7.81;55.58;101716.47;677495;29;1132;-81
2023/05/04 00:41:00;;;;;;;8.80;6.40;;;;;;;7.81;55.32;101719.94;677653;29;1196;-81
2023/05/04 00:41:22;;;;;;;7.97;6.38;;;;;;;7.82;55.51;101723.44;677583;29;1199;-81
2023/05/04 00:41:44;;;;;;;7.60;6.05;;;;;;;7.79;55.62;101721.56;677663;29;1104;-81
2023/05/04 00:42:05;;;;;;;7.65;5.90;;;;;;;7.83;55.52;101722.63;677563;29;1997;-81
2023/05/04 00:42:25;;;;;;;7.87;6.07;;;;;;;7.80;55.44;101717.28;682666;28;1185;-81
2023/05/04 00:42:46;;;;;;;8.30;6.30;;;;;;;7.86;55.25;101727.97;682885;28;1233;-81
2023/05/04 00:43:07;;;;;;;10.13;6.50;;;;;;;7.80;55.40;101717.28;685554;28;1108;-81
2023/05/04 00:43:27;;;;;;;10.00;6.30;;;;;;;7.80;55.58;101719.88;685331;28;1242;-81
2023/05/04 00:43:48;;;;;;;10.40;6.30;;;;;;;7.85;55.42;101723.59;688135;28;1134;-81
2023/05/04 00:44:09;;;;;;;8.63;6.07;;;;;;;7.79;55.48;101705.06;685534;28;1130;-82
2023/05/04 00:44:30;;;;;;;8.40;5.95;;;;;;;7.77;55.05;101707.59;688019;28;1114;-82
2023/05/04 00:44:51;;;;;;;7.68;5.90;;;;;;;7.80;55.89;101722.47;688399;28;1267;-82
2023/05/04 00:45:13;;;;;;;9.30;6.28;;;;;;;7.79;55.82;101712.84;680211;29;1173;-81
2023/05/04 00:45:34;;;;;;;10.60;6.50;;;;;;;7.89;55.25;101733.38;680162;29;1088;-81
2023/05/04 00:45:55;;;;;;;10.70;6.60;;;;;;;7.84;55.36;101723.53;682906;28;1098;-81
2023/05/04 00:46:16;;;;;;;8.80;6.55;;;;;;;7.81;55.75;101713.88;682913;28;1309;-81
2023/05/04 00:46:36;;;;;;;10.68;6.60;;;;;;;7.88;55.94;101726.38;680058;29;1256;-81
2023/05/04 00:46:57;;;;;;;10.98;6.70;;;;;;;7.81;55.65;101717.34;685263;28;1371;-81
2023/05/04 00:47:20;;;;;;;11.05;6.53;;;;;;;7.83;55.89;101712.22;682818;28;1211;-81
2023/05/04 00:47:41;;;;;;;9.48;6.32;;;;;;;7.76;56.27;101708.41;680285;29;1106;-82
2023/05/04 00:48:03;;;;;;;9.65;6.30;;;;;;;7.84;55.92;101718.34;680045;29;1287;-81
2023/05/04 00:48:24;;;;;;;9.77;6.60;;;;;;;7.79;55.71;101716.38;680120;29;1138;-82
2023/05/04 00:48:47;;;;;;;8.47;6.50;;;;;;;7.81;56.16;101713.88;677614;28;1136;-81
2023/05/04 00:49:08;;;;;;;7.93;6.43;;;;;;;7.80;55.74;101707.75;677460;29;1164;-81
2023/05/04 00:49:29;;;;;;;8.02;6.38;;;;;;;7.82;56.09;101721.72;682726;29;1111;-81
2023/05/04 00:49:50;;;;;;;9.70;6.60;;;;;;;7.86;55.81;101727.97;682842;28;1332;-81
2023/05/04 00:50:11;;;;;;;9.68;7.00;;;;;;;7.87;55.58;101724.56;685464;28;1377;-81
2023/05/04 00:50:33;;;;;;;8.97;6.67;;;;;;;7.84;55.80;101724.41;680052;28;1056;-80
2023/05/04 00:50:54;;;;;;;7.43;6.30;;;;;;;7.78;55.68;101713.69;677524;29;1304;-82
2023/05/04 00:51:18;;;;;;;7.50;6.00;;;;;;;7.77;55.90;101717.09;680288;29;1108;-81
2023/05/04 00:51:39;;;;;;;7.35;5.95;;;;;;;7.78;55.85;101718.88;677492;28;1356;-81
2023/05/04 00:52:01;;;;;;;6.90;5.80;;;;;;;7.77;55.81;101712.81;680280;29;1092;-81
2023/05/04 00:52:23;;;;;;;8.25;6.10;;;;;;;7.74;55.75;101709.13;680179;29;1120;-81
2023/05/04 00:52:45;;;;;;;10.00;6.68;;;;;;;7.82;56.08;101720.84;680288;29;1157;-81
2023/05/04 00:53:08;;;;;;;9.98;6.72;;;;;;;7.75;56.03;101710.91;680070;29;1115;-81
2023/05/04 00:53:29;;;;;;;8.05;6.00;;;;;;;7.84;55.77;101729.59;677522;29;1092;-81
2023/05/04 00:53:52;;;;;;;7.50;6.13;;;;;;;7.73;56.18;101709.94;682732;28;1163;-81
2023/05/04 00:54:15;;;;;;;7.75;6.00;;;;;;;7.68;56.21;101702.78;680059;29;1197;-81
2023/05/04 00:54:36;;;;;;;7.80;6.20;;;;;;;7.74;56.01;101711.72;680032;28;1359;-81
2023/05/04 00:54:59;;;;;;;7.70;6.40;;;;;;;7.76;56.42;101715.31;682833;29;1167;-81
2023/05/04 00:55:20;;;;;;;7.40;6.40;;;;;;;7.71;55.99;101711.53;685380;28;1242;-81
2023/05/04 00:55:41;;;;;;;7.63;6.35;;;;;;;7.67;56.43;101700.09;682817;28;1392;-81
2023/05/04 00:56:03;;;;;;;7.95;6.00;;;;;;;7.71;56.02;101703.75;685477;28;1277;-82
2023/05/04 00:56:25;;;;;;;8.63;5.90;;;;;;;7.70;55.79;101704.56;680127;29;1061;-81
2023/05/04 00:56:46;;;;;;;8.23;6.10;;;;;;;7.68;55.63;101700.19;682809;28;1088;-81
2023/05/04 00:57:07;;;;;;;7.60;6.28;;;;;;;7.73;55.98;101709.94;680087;29;1111;-81
2023/05/04 00:57:28;;;;;;;7.60;6.37;;;;;;;7.71;56.11;101711.53;677541;29;1188;-80
2023/05/04 00:57:49;;;;;;;8.10;6.50;;;;;;;7.76;56.34;101715.31;680199;29;1307;-81
2023/05/04 00:58:10;;;;;;;8.73;6.82;;;;;;;7.72;56.08;101702.94;680229;28;1077;-82
2023/05/04 00:58:31;;;;;;;9.88;7.05;;;;;;;7.72;56.08;101709.03;674753;29;1150;-81
2023/05/04 00:58:53;;;;;;;10.15;6.68;;;;;;;7.66;56.11;101698.31;677780;29;1202;-81
2023/05/04 00:59:13;;;;;;;11.15;6.40;;;;;;;7.65;56.28;101694.84;680170;28;1158;-81
2023/05/04 00:59:34;;;;;;;10.03;6.47;;;;;;;7.63;56.11;101693.84;682742;28;1068;-82
2023/05/04 00:59:55;;;;;;;8.93;6.32;;;;;;;7.64;56.14;101695.66;685457;28;1180;-81
2023/05/04 01:00:16;;;;;;;8.45;6.20;;;;;;;7.66;56.19;101698.31;680103;28;1060;-81
2023/05/04 01:00:37;;;;;;;9.32;6.43;;;;;;;7.73;56.17;101707.34;677500;29;1062;-81
2023/05/04 01:00:58;;;;;;;11.05;7.05;;;;;;;7.73;56.30;101716.03;680231;29;1001;-81
2023/05/04 01:01:20;;;;;;;12.00;7.10;;;;;;;7.60;56.71;101693.69;680037;29;990;-81
2023/05/04 01:01:41;;;;;;;10.88;6.75;;;;;;;7.58;56.19;101690.09;685570;28;1118;-81
2023/05/04 01:02:03;;;;;;;11.15;6.70;;;;;;;7.60;56.58;101688.47;685486;28;1098;-82
2023/05/04 01:02:23;;;;;;;13.25;6.70;;;;;;;7.63;56.18;101692.97;682713;28;1157;-81
2023/05/04 01:02:44;;;;;;;13.70;6.28;;;;;;;7.69;56.50;101708.88;682877;29;1140;-81
2023/05/04 01:03:05;;;;;;;11.35;6.00;;;;;;;7.61;56.01;101692.84;682781;28;1210;-81
2023/05/04 01:03:27;;;;;;;7.50;5.90;;;;;;;7.65;56.19;101697.44;682658;28;1097;-81
2023/05/04 01:04:09;;;;;;;8.20;6.00;;;;;;;7.71;56.65;101709.84;682948;28;1222;-81
2023/05/04 01:04:30;;;;;;;8.85;6.10;;;;;;;7.63;56.21;101700.75;685283;28;1093;-81
2023/05/04 01:05:33;;;;;;;7.95;6.30;;;;;;;7.69;56.30;101708.88;685614;28;1309;-81
2023/05/04 01:06:31;;;;;;;8.82;6.50;;;;;;;7.60;55.95;101696.28;682595;28;1296;-81
2023/05/04 01:07:07;;;;;;;7.15;6.03;;;;;;;7.61;56.20;101681.59;682582;29;894;-81
2023/05/04 01:08:09;;;;;;;7.68;6.20;;;;;;;7.75;55.73;101704.00;681574;29;1129;-81
2023/05/04 01:08:34;;;;;;;10.75;6.70;;;;;;;7.64;56.03;101684.34;677095;29;1091;-81
2023/05/04 01:09:01;;;;;;;10.15;6.43;;;;;;;7.73;55.91;101702.16;674791;29;1228;-81
2023/05/04 01:09:49;;;;;;;8.90;6.40;;;;;;;7.75;55.94;101706.59;680022;29;1115;-81
2023/05/04 01:10:16;;;;;;;8.55;6.30;;;;;;;7.67;56.13;101690.59;677432;29;987;-81
2023/05/04 01:11:01;;;;;;;10.02;6.50;;;;;;;7.61;55.68;101677.28;677494;29;1172;-81
2023/05/04 01:11:36;;;;;;;9.98;6.47;;;;;;;7.64;55.54;101681.75;679599;29;1299;-81
2023/05/04 01:11:59;;;;;;;9.48;6.40;;;;;;;7.62;55.83;101680.78;680029;28;1213;-82
2023/05/04 01:12:32;;;;;;;8.80;6.40;;;;;;;7.74;56.09;101698.75;677213;29;1199;-80
2023/05/04 01:13:01;;;;;;;7.35;6.05;;;;;;;7.59;56.06;101675.41;680121;29;1278;-81
2023/05/04 01:13:24;;;;;;;8.65;6.50;;;;;;;7.61;55.87;101685.06;680008;29;1027;-81
2023/05/04 01:13:45;;;;;;;9.88;6.70;;;;;;;7.65;56.16;101689.63;682763;28;1965;-81
2023/05/04 01:14:08;;;;;;;9.98;6.65;;;;;;;7.62;56.12;101686.84;680082;29;994;-81
2023/05/04 01:14:30;;;;;;;9.50;6.43;;;;;;;7.70;56.17;101700.28;683706;28;1206;-81
2023/05/04 01:14:52;;;;;;;10.38;6.70;;;;;;;7.62;56.12;101689.44;682797;28;1318;-81
2023/05/04 01:15:14;;;;;;;10.55;6.90;;;;;;;7.65;56.46;101693.94;680234;28;1243;-82
2023/05/04 01:15:55;;;;;;;9.48;6.97;;;;;;;7.71;55.98;101696.88;682664;28;1334;-81
2023/05/04 01:16:16;;;;;;;10.77;6.50;;;;;;;7.58;56.45;101671.91;685375;28;1191;-81
2023/05/04 01:16:36;;;;;;;10.02;6.20;;;;;;;7.62;56.49;101691.16;685335;28;1304;-81
2023/05/04 01:16:59;;;;;;;9.80;6.15;;;;;;;7.64;56.59;101687.84;685365;28;984;-82
2023/05/04 01:17:20;;;;;;;7.40;6.10;;;;;;;7.65;56.32;101689.63;685388;28;1355;-81
2023/05/04 01:17:40;;;;;;;9.60;6.10;;;;;;;7.56;56.39;101676.16;685449;28;1056;-81
2023/05/04 01:18:02;;;;;;;11.10;6.20;;;;;;;7.66;56.36;101693.09;685436;28;988;-81
2023/05/04 01:18:22;;;;;;;11.40;6.38;;;;;;;7.62;56.27;101692.03;682624;28;1074;-81
2023/05/04 01:18:43;;;;;;;9.65;6.50;;;;;;;7.71;56.41;101703.75;682898;28;1211;-81
2023/05/04 01:19:03;;;;;;;9.03;6.70;;;;;;;7.61;56.70;101685.06;685199;28;1296;-81
2023/05/04 01:19:26;;;;;;;8.82;6.72;;;;;;;7.61;56.33;101681.59;682682;28;1311;-81
2023/05/04 01:19:47;;;;;;;8.10;6.53;;;;;;;7.66;56.65;101688.81;680242;29;1045;-81
2023/05/04 01:20:16;;;;;;;7.82;6.50;;;;;;;7.68;56.66;101692.38;682877;29;1206;-81
2023/05/04 01:20:37;;;;;;;7.88;6.60;;;;;;;7.57;56.37;101679.63;682737;29;1137;-81
2023/05/04 01:20:57;;;;;;;7.78;6.30;;;;;;;7.62;56.50;101685.97;677529;28;1248;-81
2023/05/04 01:21:30;;;;;;;8.50;6.60;;;;;;;7.58;56.45;101684.91;677344;29;1200;-81
2023/05/04 01:21:51;;;;;;;9.05;6.70;;;;;;;7.56;56.56;101681.34;680264;29;1072;-81
2023/05/04 01:22:12;;;;;;;9.13;6.57;;;;;;;7.57;56.24;101688.31;680166;29;981;-80
2023/05/04 01:22:32;;;;;;;10.38;6.55;;;;;;;7.56;56.56;101677.84;682756;28;1202;-81
2023/05/04 01:22:53;;;;;;;10.60;6.43;;;;;;;7.62;56.21;101693.78;682713;28;1165;-81
2023/05/04 01:23:14;;;;;;;10.20;6.75;;;;;;;7.53;56.52;101682.06;677560;29;1139;-81
2023/05/04 01:23:35;;;;;;;10.60;6.90;;;;;;;7.55;56.43;101679.53;682708;28;1176;-81
2023/05/04 01:23:56;;;;;;;9.88;6.63;;;;;;;7.62;56.39;101699.84;682866;29;1005;-81
2023/05/04 01:24:18;;;;;;;11.23;6.50;;;;;;;7.53;56.85;101682.06;682709;29;1139;-80
2023/05/04 01:24:39;;;;;;;9.00;6.50;;;;;;;7.50;56.60;101681.88;682655;28;1189;-81
2023/05/04 01:25:10;;;;;;;8.88;6.40;;;;;;;7.50;56.27;101678.41;679825;29;1234;-82
2023/05/04 01:25:35;;;;;;;7.68;6.22;;;;;;;7.52;56.72;101689.75;685226;28;989;-81
2023/05/04 01:26:15;;;;;;;7.90;6.60;;;;;;;7.47;56.56;101671.31;682833;28;878;-81
2023/05/04 01:26:42;;;;;;;7.60;6.55;;;;;;;7.53;56.31;101686.34;679986;29;1204;-81
2023/05/04 01:27:21;;;;;;;8.52;6.55;;;;;;;7.48;56.90;101690.38;682480;29;1333;-81
2023/05/04 01:28:16;;;;;;;9.32;6.78;;;;;;;7.42;57.24;101692.66;680245;29;1139;-81
2023/05/04 01:28:56;;;;;;;8.35;6.43;;;;;;;7.32;57.10;101684.38;677282;29;1114;-80
2023/05/04 01:29:22;;;;;;;9.32;6.60;;;;;;;7.26;57.26;101682.28;677387;29;1644;-81
2023/05/04 01:29:45;;;;;;;9.45;6.50;;;;;;;7.45;57.49;101701.53;677489;29;1122;-81
2023/05/04 01:30:17;;;;;;;9.18;6.80;;;;;;;7.32;57.13;101686.06;682635;29;1117;-81
2023/05/04 01:30:43;;;;;;;8.27;6.90;;;;;;;7.27;57.48;101683.19;682649;29;1091;-81
2023/05/04 01:31:07;;;;;;;7.80;6.97;;;;;;;7.32;57.77;101686.97;682705;28;1317;-81
2023/05/04 01:31:28;;;;;;;8.20;6.70;;;;;;;7.37;57.80;101685.50;682635;28;1029;-81
2023/05/04 01:31:49;;;;;;;9.85;6.50;;;;;;;7.36;57.28;101683.72;680216;29;1166;-81
2023/05/04 01:32:13;;;;;;;10.35;6.45;;;;;;;7.39;57.10;101688.19;680118;29;1134;-81
2023/05/04 01:32:35;;;;;;;9.52;6.50;;;;;;;7.44;57.07;101701.44;677294;29;1278;-81
2023/05/04 01:33:00;;;;;;;8.25;6.70;;;;;;;7.37;57.00;101685.50;682777;28;1228;-81
2023/05/04 01:33:21;;;;;;;7.00;6.30;;;;;;;7.38;57.11;101679.50;682582;28;1162;-81
2023/05/04 01:33:42;;;;;;;7.43;6.40;;;;;;;7.37;57.31;101685.50;685425;28;1969;-81
2023/05/04 01:34:04;;;;;;;8.10;6.43;;;;;;;7.45;56.97;101688.53;680138;29;1199;-80
2023/05/04 01:34:24;;;;;;;8.50;6.70;;;;;;;7.38;57.24;101687.28;682593;28;1249;-82
2023/05/04 01:34:45;;;;;;;9.05;6.90;;;;;;;7.39;57.00;101688.19;682776;28;1261;-81
2023/05/04 01:35:06;;;;;;;9.05;6.70;;;;;;;7.38;57.24;101692.47;683142;29;1077;-81
2023/05/04 01:35:27;;;;;;;10.68;6.47;;;;;;;7.31;56.88;101679.94;680551;29;1472;-81
2023/05/04 01:35:48;;;;;;;11.10;6.32;;;;;;;7.33;57.12;101678.34;678173;29;1081;-81
2023/05/04 01:36:09;;;;;;;10.40;6.35;;;;;;;7.33;57.08;101683.56;680729;29;1224;-81
2023/05/04 01:36:32;;;;;;;10.43;6.45;;;;;;;7.42;57.02;101698.72;680490;29;1324;-81
2023/05/04 01:36:53;;;;;;;9.23;6.50;;;;;;;7.31;57.48;101679.06;680506;29;1034;-81
2023/05/04 01:37:14;;;;;;;10.52;6.68;;;;;;;7.35;57.30;101681.94;680867;29;1227;-81
2023/05/04 01:37:34;;;;;;;10.88;6.68;;;;;;;7.33;57.51;101688.75;680490;29;954;-81
2023/05/04 01:37:55;;;;;;;12.10;6.90;;;;;;;7.33;57.29;101678.34;680600;29;1310;-81
2023/05/04 01:38:16;;;;;;;11.70;6.95;;;;;;;7.32;57.28;101680.88;680719;29;1085;-80
2023/05/04 01:38:37;;;;;;;8.98;6.53;;;;;;;7.29;57.37;101676.38;683336;28;1097;-81
2023/05/04 01:38:58;;;;;;;9.07;6.80;;;;;;;7.30;57.38;101672.09;686068;28;1016;-80
2023/05/04 01:39:19;;;;;;;8.60;6.93;;;;;;;7.33;57.13;101678.34;691226;28;1298;-81
2023/05/04 01:39:40;;;;;;;9.00;7.30;;;;;;;7.38;57.50;101686.41;683280;28;1240;-81
2023/05/04 01:40:00;;;;;;;9.25;7.00;;;;;;;7.35;57.59;101687.13;683300;28;1202;-81
2023/05/04 01:40:21;;;;;;;9.20;7.10;;;;;;;7.30;57.67;101678.16;686017;28;1119;-81
2023/05/04 01:40:42;;;;;;;9.00;6.97;;;;;;;7.33;57.69;101678.34;685968;28;1085;-81
2023/05/04 01:41:02;;;;;;;8.60;6.88;;;;;;;7.38;57.75;101695.06;688618;28;1157;-81
2023/05/04 01:41:23;;;;;;;9.73;6.53;;;;;;;7.33;57.72;101678.34;680532;29;1089;-81
2023/05/04 01:41:43;;;;;;;9.80;6.70;;;;;;;7.31;57.94;101679.06;683399;28;1175;-81
2023/05/04 01:42:06;;;;;;;10.10;6.80;;;;;;;7.31;57.63;101686.88;688588;28;1195;-81
2023/05/04 01:42:26;;;;;;;8.68;6.82;;;;;;;7.17;57.86;101680.91;685881;28;1360;-81
2023/05/04 01:42:47;;;;;;;9.63;6.97;;;;;;;7.15;57.82;101678.22;680848;29;916;-81
2023/05/04 01:43:07;;;;;;;9.43;7.30;;;;;;;7.11;58.10;101682.34;680835;29;974;-81
2023/05/04 01:43:28;;;;;;;9.65;7.40;;;;;;;7.19;58.09;101700.06;680590;29;1105;-81
2023/05/04 01:43:49;;;;;;;9.55;7.20;;;;;;;7.08;58.42;101687.38;685993;28;1223;-82
2023/05/04 01:44:09;;;;;;;10.13;7.13;;;;;;;7.05;58.60;101676.78;685993;28;1196;-81
2023/05/04 01:44:30;;;;;;;10.30;7.13;;;;;;;7.06;58.45;101678.56;683139;28;1201;-81
2023/05/04 01:44:51;;;;;;;8.60;6.90;;;;;;;7.02;58.70;101680.91;683180;28;1486;-81
2023/05/04 01:45:12;;;;;;;8.38;7.13;;;;;;;7.10;58.22;101696.13;685989;28;1264;-80
2023/05/04 01:45:33;;;;;;;8.60;7.10;;;;;;;7.07;58.74;101695.94;688471;28;1137;-81
2023/05/04 01:45:53;;;;;;;8.68;7.20;;;;;;;7.03;58.35;101683.59;683176;28;1453;-81
2023/05/04 01:46:14;;;;;;;8.75;7.05;;;;;;;7.03;58.61;101688.78;680759;28;1096;-81
2023/05/04 01:46:53;;;;;;;8.00;7.17;;;;;;;7.03;58.27;101699.16;680463;29;1329;-81
2023/05/04 01:47:13;;;;;;;10.23;7.15;;;;;;;6.94;58.65;101676.16;683265;28;1267;-81
2023/05/04 01:47:34;;;;;;;11.23;7.22;;;;;;;6.98;58.37;101685.94;680510;29;1252;-82
2023/05/04 01:47:54;;;;;;;11.63;6.90;;;;;;;6.97;58.17;101689.34;683216;28;1148;-81
2023/05/04 01:48:15;;;;;;;10.50;6.93;;;;;;;7.05;58.68;101700.16;683384;29;1096;-81
2023/05/04 01:48:36;;;;;;;10.10;6.50;;;;;;;7.04;58.38;101680.19;680549;28;1276;-80
2023/05/04 01:48:57;;;;;;;10.10;6.70;;;;;;;7.06;58.50;101682.88;678003;29;1210;-81
2023/05/04 01:49:17;;;;;;;10.33;6.60;;;;;;;7.02;58.48;101692.19;688627;28;1136;-81
2023/05/04 01:49:38;;;;;;;11.68;7.05;;;;;;;7.01;58.17;101695.59;683194;28;1161;-80
2023/05/04 01:49:58;;;;;;;11.07;6.97;;;;;;;7.00;58.55;101696.38;683239;28;1088;-81